Time;durP1;ratioP1;P1;durP2;ratioP2;P2;SDS_P1;SDS_P2;PMS_P1;PMS_P2;Temp;Humidity;BMP_temperature;BMP_pressure;BME280_temperature;BME280_humidity;BME280_pressure;Samples;Min_cycle;Max_cycle;Signal;HPM_P1;HPM_P2
2023/12/09 00:00:12;;;;;;;17.52;9.70;;;;;;;0.46;83.03;93891.88;5064452;28;20025;-82
2023/12/09 00:02:37;;;;;;;22.50;9.48;;;;;;;0.50;83.06;93898.19;5064279;28;20021;-82
2023/12/09 00:05:03;;;;;;;19.10;9.48;;;;;;;0.56;82.93;93897.19;5065061;28;20197;-82
2023/12/09 00:07:28;;;;;;;18.85;9.05;;;;;;;0.62;83.03;93899.88;5065275;28;20021;-82
2023/12/09 00:09:54;;;;;;;17.10;8.60;;;;;;;0.63;82.76;93894.34;5065012;28;20029;-81
2023/12/09 00:12:19;;;;;;;18.88;8.85;;;;;;;0.67;82.24;93910.41;5064871;28;20025;-81
2023/12/09 00:14:44;;;;;;;17.75;8.52;;;;;;;0.64;82.53;93905.66;5065021;28;20044;-82
2023/12/09 00:17:10;;;;;;;19.75;9.30;;;;;;;0.69;81.89;93905.69;5064673;28;20219;-82
2023/12/09 00:19:36;;;;;;;17.85;9.05;;;;;;;0.64;81.99;93900.41;5064412;28;20022;-82
2023/12/09 00:22:01;;;;;;;18.23;8.65;;;;;;;0.60;82.28;93898.28;5064701;28;20066;-82
2023/12/09 00:24:27;;;;;;;21.23;9.50;;;;;;;0.56;82.55;93889.31;5064262;28;20020;-82
2023/12/09 00:26:52;;;;;;;18.27;9.32;;;;;;;0.42;83.19;93895.25;5064357;28;20078;-82
2023/12/09 00:29:17;;;;;;;19.25;9.30;;;;;;;0.37;83.70;93890.75;5064357;28;20060;-81
2023/12/09 00:31:43;;;;;;;19.88;9.32;;;;;;;0.29;84.25;93885.94;5064461;28;20069;-82
2023/12/09 00:34:09;;;;;;;21.80;11.55;;;;;;;0.24;84.99;93886.69;5063887;28;20021;-80
2023/12/09 00:36:34;;;;;;;23.70;10.45;;;;;;;0.21;85.11;93894.25;5063990;28;20021;-82
2023/12/09 00:39:00;;;;;;;24.67;12.30;;;;;;;0.21;85.29;93889.03;5063900;28;20350;-80
2023/12/09 00:41:26;;;;;;;21.25;10.65;;;;;;;0.19;85.58;93892.66;5064091;28;20021;-82
2023/12/09 00:43:51;;;;;;;21.67;11.48;;;;;;;0.18;85.56;93896.34;5064100;28;20459;-82
2023/12/09 00:46:16;;;;;;;21.73;10.43;;;;;;;0.12;85.76;93893.91;5062682;28;20025;-82
2023/12/09 00:48:42;;;;;;;20.38;10.68;;;;;;;0.03;86.09;93892.75;5064090;28;20039;-82
2023/12/09 00:51:08;;;;;;;20.63;9.80;;;;;;;-0.06;86.54;93884.53;5064085;28;20346;-82
2023/12/09 00:53:33;;;;;;;22.25;9.60;;;;;;;-0.12;86.80;93885.50;5063922;28;20028;-81
2023/12/09 00:55:59;;;;;;;19.38;9.40;;;;;;;-0.14;86.85;93890.22;5063902;28;20104;-81
2023/12/09 00:58:24;;;;;;;20.50;10.13;;;;;;;-0.18;87.16;93887.31;5062138;28;20182;-80
2023/12/09 01:00:50;;;;;;;17.98;9.55;;;;;;;-0.18;87.16;93896.97;5062335;28;20021;-80
2023/12/09 01:03:15;;;;;;;22.17;9.98;;;;;;;-0.18;87.29;93896.97;5063737;28;20059;-81
2023/12/09 01:05:41;;;;;;;19.15;10.65;;;;;;;-0.19;87.30;93900.66;5063831;28;20028;-80
2023/12/09 01:08:06;;;;;;;17.35;9.48;;;;;;;-0.18;87.51;93903.03;5063651;28;20028;-80
2023/12/09 01:10:32;;;;;;;16.63;9.00;;;;;;;-0.18;87.56;93897.78;5062695;28;20361;-81
2023/12/09 01:12:57;;;;;;;15.80;8.90;;;;;;;-0.17;87.60;93903.81;5063738;28;20019;-80
2023/12/09 01:15:22;;;;;;;22.63;11.07;;;;;;;-0.16;87.44;93898.34;5063332;28;20070;-81
2023/12/09 01:17:48;;;;;;;17.33;8.73;;;;;;;-0.15;87.39;93906.97;5063510;28;20021;-79
2023/12/09 01:20:14;;;;;;;17.20;9.32;;;;;;;-0.09;87.47;93908.63;5063073;28;20331;-81
2023/12/09 01:22:39;;;;;;;18.50;9.10;;;;;;;-0.08;87.37;93911.00;5063650;28;20025;-81
2023/12/09 01:25:06;;;;;;;22.25;9.75;;;;;;;-0.07;87.01;93911.78;5063546;28;20025;-81
2023/12/09 01:27:31;;;;;;;18.52;9.52;;;;;;;-0.05;87.05;93913.13;5096141;28;20160;-81
2023/12/09 01:29:57;;;;;;;18.73;10.00;;;;;;;0.04;86.77;93899.56;5063498;28;20028;-80
2023/12/09 01:32:22;;;;;;;20.00;10.45;;;;;;;0.12;86.33;93907.81;5063245;28;20029;-80
2023/12/09 01:34:47;;;;;;;18.83;9.93;;;;;;;0.17;86.35;93907.06;5063242;28;20215;-80
2023/12/09 01:37:13;;;;;;;20.50;10.13;;;;;;;0.23;86.26;93902.66;5063198;28;20063;-81
2023/12/09 01:39:40;;;;;;;19.90;9.90;;;;;;;0.23;85.67;93902.66;5062802;28;20044;-81
2023/12/09 01:42:05;;;;;;;18.67;9.35;;;;;;;0.25;85.15;93901.38;5063309;28;20048;-81
2023/12/09 01:44:31;;;;;;;18.35;9.60;;;;;;;0.25;84.82;93900.59;5063062;28;20335;-84
2023/12/09 01:46:56;;;;;;;16.58;8.48;;;;;;;0.24;85.22;93891.91;5063328;28;20021;-81
2023/12/09 01:49:22;;;;;;;16.55;9.27;;;;;;;0.33;85.07;93895.69;5063450;28;20219;-82
2023/12/09 01:51:47;;;;;;;18.05;8.65;;;;;;;0.39;84.33;93891.28;5063237;28;20176;-83
2023/12/09 01:54:14;;;;;;;17.30;8.60;;;;;;;0.44;84.78;93901.81;5061941;28;20035;-82
2023/12/09 01:56:39;;;;;;;18.95;9.68;;;;;;;0.54;84.76;93893.25;5063047;28;20024;-83
2023/12/09 01:59:05;;;;;;;16.35;9.32;;;;;;;0.61;84.20;93891.19;5061818;28;20079;-83
2023/12/09 02:01:35;;;;;;;17.98;9.73;;;;;;;0.66;83.53;93879.97;5063401;28;20068;-83
2023/12/09 02:04:01;;;;;;;16.40;7.97;;;;;;;0.64;83.66;93880.22;5063147;28;20045;-83
2023/12/09 02:06:26;;;;;;;15.52;7.90;;;;;;;0.63;83.07;93880.47;5062733;28;20021;-84
2023/12/09 02:08:53;;;;;;;15.55;7.38;;;;;;;0.60;82.39;93876.50;5061966;28;20028;-85
2023/12/09 02:11:36;;;;;;;15.00;7.75;;;;;;;0.61;82.50;93872.84;5063160;28;20025;-84
2023/12/09 02:14:16;;;;;;;17.67;8.98;;;;;;;0.60;83.18;93871.25;5063550;28;20013;-85
2023/12/09 02:16:46;;;;;;;17.17;8.38;;;;;;;0.59;83.27;93883.59;5062768;28;20055;-81
2023/12/09 02:19:13;;;;;;;13.88;7.88;;;;;;;0.57;83.20;93882.25;5062825;28;20025;-82
2023/12/09 02:21:59;;;;;;;13.48;8.10;;;;;;;0.50;83.36;93881.66;5062987;28;20036;-81
2023/12/09 02:24:25;;;;;;;15.07;7.88;;;;;;;0.39;83.37;93888.66;5063380;28;20204;-81
2023/12/09 02:26:51;;;;;;;17.50;8.48;;;;;;;0.32;83.36;93883.59;5066668;28;20032;-82
2023/12/09 02:29:18;;;;;;;15.60;8.70;;;;;;;0.21;83.62;93879.31;5066653;28;20096;-81
2023/12/09 02:31:45;;;;;;;20.60;8.70;;;;;;;0.15;83.86;93880.31;5066656;28;20031;-82
2023/12/09 02:34:13;;;;;;;17.95;9.85;;;;;;;-0.01;84.13;93879.34;5066190;28;20017;-80
2023/12/09 02:36:43;;;;;;;17.75;8.93;;;;;;;-0.04;84.65;93871.97;5064963;28;20021;-79
2023/12/09 02:39:11;;;;;;;16.98;8.10;;;;;;;-0.04;84.82;93877.22;5066176;28;20103;-79
2023/12/09 02:41:39;;;;;;;17.65;8.95;;;;;;;-0.13;85.04;93868.22;5066208;28;20052;-79
2023/12/09 02:44:05;;;;;;;18.38;9.23;;;;;;;-0.21;85.70;93866.81;5065734;28;20036;-79
2023/12/09 02:46:31;;;;;;;17.75;9.68;;;;;;;-0.19;85.82;93867.38;5066206;28;20017;-79
2023/12/09 02:48:59;;;;;;;21.65;9.65;;;;;;;-0.27;85.69;93865.97;5065969;28;20123;-80
2023/12/09 02:51:25;;;;;;;17.85;9.40;;;;;;;-0.24;85.28;93867.34;5066354;28;20099;-80
2023/12/09 02:53:50;;;;;;;16.73;8.73;;;;;;;-0.31;85.48;93872.72;5064928;28;20025;-79
2023/12/09 02:56:16;;;;;;;20.83;9.93;;;;;;;-0.32;85.60;93876.41;5066356;28;20048;-80
2023/12/09 02:58:41;;;;;;;18.58;10.68;;;;;;;-0.35;85.43;93874.25;5065630;28;20045;-80
2023/12/09 03:01:07;;;;;;;20.08;9.35;;;;;;;-0.33;85.09;93876.66;5065983;28;20092;-79
2023/12/09 03:03:32;;;;;;;16.92;8.82;;;;;;;-0.37;84.63;93867.69;5065747;28;20092;-80
2023/12/09 03:05:58;;;;;;;19.27;9.93;;;;;;;-0.39;84.44;93869.75;5065659;28;20055;-80
2023/12/09 03:08:23;;;;;;;18.92;8.77;;;;;;;-0.45;84.34;93876.75;5064441;28;20021;-79
2023/12/09 03:10:49;;;;;;;18.30;8.75;;;;;;;-0.45;84.54;93866.28;5065457;28;20017;-80
2023/12/09 03:13:14;;;;;;;16.08;8.00;;;;;;;-0.41;84.39;93872.63;5065478;28;20021;-80
2023/12/09 03:15:39;;;;;;;17.10;8.55;;;;;;;-0.43;84.05;93867.66;5065647;28;20348;-80
2023/12/09 03:18:05;;;;;;;14.48;8.18;;;;;;;-0.47;83.81;93871.78;5065384;28;20099;-80
2023/12/09 03:20:30;;;;;;;15.10;7.88;;;;;;;-0.47;83.50;93869.16;5064495;28;20033;-80
2023/12/09 03:22:56;;;;;;;17.40;8.07;;;;;;;-0.49;83.82;93871.25;5065528;28;20215;-80
2023/12/09 03:25:21;;;;;;;13.40;7.03;;;;;;;-0.51;84.04;93881.16;5065652;28;20017;-82
2023/12/09 03:27:47;;;;;;;15.00;7.80;;;;;;;-0.53;83.55;93871.94;5065829;28;20040;-81
2023/12/09 03:30:12;;;;;;;15.07;7.88;;;;;;;-0.53;83.32;93878.00;5065589;28;20024;-81
2023/12/09 03:32:38;;;;;;;14.40;8.50;;;;;;;-0.55;83.62;93874.03;5064501;28;20031;-80
2023/12/09 03:35:04;;;;;;;12.27;7.88;;;;;;;-0.59;83.74;93870.31;5065061;28;20080;-81
2023/12/09 03:37:30;;;;;;;11.70;6.47;;;;;;;-0.56;83.79;93877.69;5065873;28;20111;-81
2023/12/09 03:39:55;;;;;;;16.10;8.18;;;;;;;-0.63;83.57;93873.41;5065769;28;20033;-81
2023/12/09 03:42:21;;;;;;;21.25;9.20;;;;;;;-0.62;83.56;93866.34;5065736;28;20311;-81
2023/12/09 03:44:46;;;;;;;15.35;7.47;;;;;;;-0.57;83.42;93865.63;5065514;28;20052;-81
2023/12/09 03:47:12;;;;;;;12.15;6.90;;;;;;;-0.59;83.38;93872.91;5065704;28;20059;-81
2023/12/09 03:49:37;;;;;;;14.20;6.85;;;;;;;-0.61;83.47;93873.19;5065347;28;20112;-81
2023/12/09 03:52:03;;;;;;;13.27;6.70;;;;;;;-0.62;83.13;93876.81;5064234;28;20095;-82
2023/12/09 03:54:28;;;;;;;10.70;5.63;;;;;;;-0.61;83.47;93876.59;5065350;28;20075;-81
2023/12/09 03:56:54;;;;;;;11.98;6.15;;;;;;;-0.64;83.31;93884.91;5065147;28;20047;-82
2023/12/09 03:59:19;;;;;;;13.43;6.95;;;;;;;-0.74;83.53;93874.31;5064549;28;20330;-82
2023/12/09 04:01:51;;;;;;;10.82;5.72;;;;;;;-0.72;83.80;93879.31;5064730;28;20082;-82
2023/12/09 04:04:17;;;;;;;;;;;;;;;-0.77;83.62;93885.28;5064781;28;20028;-83
2023/12/09 04:06:42;;;;;;;13.07;6.13;;;;;;;-0.87;84.03;93880.69;5064721;28;19966;-82
2023/12/09 04:09:09;;;;;;;12.50;6.45;;;;;;;-0.94;84.69;93887.13;5064531;28;20274;-83
2023/12/09 04:11:35;;;;;;;12.02;6.53;;;;;;;-0.99;84.72;93895.69;5064533;28;20025;-83
2023/12/09 04:14:00;;;;;;;11.85;5.72;;;;;;;-1.06;85.21;93887.22;5064554;28;20017;-83
2023/12/09 04:16:26;;;;;;;13.18;7.13;;;;;;;-1.02;85.19;93896.16;5064410;28;20024;-82
2023/12/09 04:18:51;;;;;;;12.10;6.03;;;;;;;-1.01;85.34;93901.16;5062823;28;20016;-83
2023/12/09 04:21:17;;;;;;;13.35;7.38;;;;;;;-0.96;85.08;93904.88;5063001;28;20063;-83
2023/12/09 04:23:44;;;;;;;13.73;6.30;;;;;;;-0.97;84.77;93900.69;5064126;28;20017;-83
2023/12/09 04:26:09;;;;;;;13.93;7.00;;;;;;;-1.06;85.02;93898.50;5064316;28;20016;-83
2023/12/09 04:28:35;;;;;;;15.77;6.85;;;;;;;-1.05;85.23;93907.91;5063302;28;20048;-82
2023/12/09 04:31:00;;;;;;;12.82;6.25;;;;;;;-1.08;85.13;93900.56;5064430;28;20027;-83
2023/12/09 04:33:25;;;;;;;13.70;7.15;;;;;;;-1.11;85.13;93890.56;5063927;28;20017;-82
2023/12/09 04:35:51;;;;;;;13.07;6.70;;;;;;;-1.21;85.72;93896.41;5064089;28;20131;-83
2023/12/09 04:38:16;;;;;;;11.43;6.03;;;;;;;-1.15;85.58;93889.44;5063034;28;20027;-82
2023/12/09 04:40:42;;;;;;;13.13;6.82;;;;;;;-1.10;85.81;93896.56;5064015;28;20016;-82
2023/12/09 04:43:08;;;;;;;12.27;6.43;;;;;;;-1.06;85.69;93903.72;5063727;28;20108;-82
2023/12/09 04:45:34;;;;;;;11.25;6.40;;;;;;;-1.09;85.30;93898.94;5063766;28;20021;-83
2023/12/09 04:47:59;;;;;;;11.05;6.32;;;;;;;-1.08;85.72;93903.16;5062343;28;20250;-83
2023/12/09 04:50:25;;;;;;;11.38;5.38;;;;;;;-1.06;85.50;93916.81;5063852;28;20040;-84
2023/12/09 04:52:50;;;;;;;11.98;6.00;;;;;;;-1.09;85.75;93901.56;5063834;28;20017;-83
2023/12/09 04:55:15;;;;;;;9.43;5.85;;;;;;;-1.05;85.29;93909.75;5062581;28;20029;-83
2023/12/09 04:57:41;;;;;;;11.45;6.05;;;;;;;-1.03;85.46;93918.94;5063585;28;20060;-84
2023/12/09 05:00:10;;;;;;;10.52;6.03;;;;;;;-1.05;85.08;93915.75;5063565;28;20025;-82
2023/12/09 05:02:36;;;;;;;11.88;5.78;;;;;;;-0.98;85.23;93920.03;5063749;28;20016;-80
2023/12/09 05:05:04;;;;;;;11.15;5.50;;;;;;;-1.05;85.35;93914.97;5063676;28;20023;-80
2023/12/09 05:07:30;;;;;;;10.23;5.78;;;;;;;-1.06;85.54;93922.03;5063805;28;20016;-81
2023/12/09 05:09:56;;;;;;;11.18;6.38;;;;;;;-1.05;85.55;93915.75;5063779;28;20021;-80
2023/12/09 05:12:21;;;;;;;10.15;5.53;;;;;;;-0.94;85.54;93921.13;5063414;28;20029;-80
2023/12/09 05:14:47;;;;;;;10.60;5.50;;;;;;;-0.91;85.21;93918.06;5063250;28;20021;-80
2023/12/09 05:17:12;;;;;;;12.63;5.57;;;;;;;-0.86;85.08;93928.59;5063331;28;20043;-80
2023/12/09 05:19:38;;;;;;;12.02;5.57;;;;;;;-0.83;85.35;93925.50;5063486;28;20020;-81
2023/12/09 05:22:03;;;;;;;12.45;5.88;;;;;;;-0.81;85.15;93936.53;5063487;28;20196;-81
2023/12/09 05:24:29;;;;;;;12.50;5.93;;;;;;;-0.77;85.43;93942.03;5063525;28;20092;-81
2023/12/09 05:26:55;;;;;;;11.55;5.57;;;;;;;-0.77;85.26;93948.09;5063346;28;20426;-83
2023/12/09 05:29:21;;;;;;;10.90;6.13;;;;;;;-0.69;85.08;93950.31;5062922;28;20200;-82
2023/12/09 05:31:46;;;;;;;12.38;5.45;;;;;;;-0.61;84.94;93951.72;5063160;28;20087;-82
2023/12/09 05:34:11;;;;;;;14.00;6.60;;;;;;;-0.57;84.85;93955.44;5062725;28;20020;-84
2023/12/09 05:36:40;;;;;;;11.88;5.47;;;;;;;-0.54;85.05;93962.03;5063464;28;20024;-83
2023/12/09 05:39:06;;;;;;;9.50;5.07;;;;;;;-0.47;84.72;93955.59;5063695;28;20138;-82
2023/12/09 05:41:31;;;;;;;10.57;5.78;;;;;;;-0.45;84.82;93966.59;5063547;28;20100;-82
2023/12/09 05:43:57;;;;;;;13.45;6.75;;;;;;;-0.41;84.62;93956.41;5063579;28;20016;-83
2023/12/09 05:46:22;;;;;;;12.48;5.70;;;;;;;-0.35;84.14;93960.69;5062641;28;20028;-83
2023/12/09 05:48:48;;;;;;;13.20;5.47;;;;;;;-0.28;84.03;93956.09;5063662;28;20020;-83
2023/12/09 05:51:14;;;;;;;10.48;5.75;;;;;;;-0.20;83.55;93954.88;5063481;28;20025;-79
2023/12/09 05:53:41;;;;;;;11.65;5.80;;;;;;;-0.11;83.37;93965.72;5061999;28;20044;-80
2023/12/09 05:56:11;;;;;;;11.02;5.95;;;;;;;-0.04;83.38;93966.31;5062891;28;20021;-79
2023/12/09 05:58:38;;;;;;;10.50;5.57;;;;;;;-0.08;82.39;93959.97;5064423;28;20302;-79
2023/12/09 06:01:04;;;;;;;11.68;6.45;;;;;;;-0.05;82.14;93956.88;5067055;28;20097;-80
2023/12/09 06:03:29;;;;;;;11.18;5.65;;;;;;;-0.02;82.04;93954.56;5067512;28;20355;-81
2023/12/09 06:05:56;;;;;;;10.35;5.93;;;;;;;0.02;82.29;93954.06;5067448;28;20047;-81
2023/12/09 06:08:22;;;;;;;12.23;6.78;;;;;;;0.08;82.35;93964.38;5066495;28;20025;-83
2023/12/09 06:10:47;;;;;;;14.32;6.95;;;;;;;0.09;82.03;93965.16;5067378;28;20315;-82
2023/12/09 06:13:12;;;;;;;21.23;9.80;;;;;;;0.10;81.51;93962.31;5066858;28;20219;-82
2023/12/09 06:15:38;;;;;;;11.20;5.75;;;;;;;0.10;81.68;93972.78;5066685;28;20307;-82
2023/12/09 06:18:03;;;;;;;11.00;6.43;;;;;;;0.16;81.73;93971.81;5066698;28;20204;-82
2023/12/09 06:20:29;;;;;;;11.00;5.55;;;;;;;0.13;80.92;93967.03;5067011;28;20020;-82
2023/12/09 06:22:55;;;;;;;14.48;7.82;;;;;;;0.23;80.58;93978.69;5066406;28;20073;-82
2023/12/09 06:25:20;;;;;;;10.85;5.55;;;;;;;0.28;80.46;93969.03;5065241;28;20051;-82
2023/12/09 06:27:46;;;;;;;7.88;4.53;;;;;;;0.34;80.59;93972.50;5067000;28;20020;-84
2023/12/09 06:30:11;;;;;;;10.88;5.60;;;;;;;0.33;80.17;93969.09;5067090;28;20021;-84
2023/12/09 06:32:37;;;;;;;21.88;10.10;;;;;;;0.36;80.22;93975.69;5067334;28;20051;-82
2023/12/09 06:35:03;;;;;;;14.48;7.22;;;;;;;0.40;79.65;93968.91;5066902;28;20056;-83
2023/12/09 06:37:28;;;;;;;23.10;10.60;;;;;;;0.43;80.15;93970.22;5067119;28;20029;-83
2023/12/09 06:39:54;;;;;;;15.45;7.15;;;;;;;0.45;79.59;93984.69;5067051;28;20025;-83
2023/12/09 06:42:19;;;;;;;10.88;4.95;;;;;;;0.49;79.20;93983.16;5066219;28;20044;-83
2023/12/09 06:44:44;;;;;;;8.07;4.70;;;;;;;0.51;79.41;93988.97;5065804;28;20067;-83
2023/12/09 06:47:10;;;;;;;9.43;5.32;;;;;;;0.58;79.60;93975.66;5064885;28;20086;-82
2023/12/09 06:49:35;;;;;;;13.38;5.18;;;;;;;0.67;79.43;93979.41;5066189;28;20025;-82
2023/12/09 06:52:01;;;;;;;9.32;5.18;;;;;;;0.76;79.48;93979.75;5066979;28;20068;-83
2023/12/09 06:54:26;;;;;;;9.35;5.05;;;;;;;0.77;78.78;93987.38;5064922;28;20017;-82
2023/12/09 06:56:52;;;;;;;12.68;5.30;;;;;;;0.71;78.58;93977.06;5065791;28;20057;-82
2023/12/09 06:59:17;;;;;;;8.50;4.57;;;;;;;0.69;78.22;93993.09;5065804;28;20041;-82
2023/12/09 07:01:43;;;;;;;8.50;4.78;;;;;;;0.75;77.92;93988.66;5066174;28;20180;-82
2023/12/09 07:04:09;;;;;;;9.93;5.03;;;;;;;0.81;78.21;93992.91;5066072;28;20079;-82
2023/12/09 07:06:35;;;;;;;9.40;5.05;;;;;;;0.79;78.34;93987.13;5066005;28;20060;-82
2023/12/09 07:09:01;;;;;;;11.05;5.57;;;;;;;0.84;78.40;93996.88;5066073;28;20032;-82
2023/12/09 07:11:26;;;;;;;10.68;5.90;;;;;;;0.89;78.41;93997.69;5064983;28;20245;-83
2023/12/09 07:13:52;;;;;;;15.48;7.63;;;;;;;0.94;78.30;94003.00;5065865;28;20025;-83
2023/12/09 07:16:18;;;;;;;14.40;7.28;;;;;;;0.95;78.24;94003.78;5065997;28;20025;-81
2023/12/09 07:18:47;;;;;;;18.10;7.93;;;;;;;0.98;78.48;94011.97;5066057;28;20311;-82
2023/12/09 07:21:16;;;;;;;15.57;8.20;;;;;;;0.95;78.44;94001.16;5065588;28;20025;-81
2023/12/09 07:23:43;;;;;;;15.73;7.45;;;;;;;0.91;78.47;94005.34;5065518;28;20044;-82
2023/12/09 07:26:09;;;;;;;17.55;8.05;;;;;;;0.89;78.98;94004.78;5066008;28;20096;-82
2023/12/09 07:28:35;;;;;;;18.67;6.90;;;;;;;0.88;79.32;94009.25;5065944;28;20074;-80
2023/12/09 07:31:01;;;;;;;14.18;7.65;;;;;;;0.94;79.01;94002.22;5065962;28;20044;-82
2023/12/09 07:33:26;;;;;;;15.60;7.85;;;;;;;0.99;78.96;94013.53;5065991;28;20028;-82
2023/12/09 07:35:52;;;;;;;13.00;6.50;;;;;;;0.97;78.36;94012.22;5065739;28;20033;-81
2023/12/09 07:38:17;;;;;;;13.15;5.93;;;;;;;0.97;78.23;94007.75;5066035;28;20025;-81
2023/12/09 07:40:47;;;;;;;14.65;6.57;;;;;;;0.99;78.17;94016.16;5065543;28;20024;-83
2023/12/09 07:43:13;;;;;;;13.63;7.22;;;;;;;1.02;79.01;94020.16;5065727;28;20025;-83
2023/12/09 07:45:38;;;;;;;15.45;7.35;;;;;;;1.07;78.44;94014.91;5066081;28;20021;-83
2023/12/09 07:48:04;;;;;;;14.68;6.78;;;;;;;1.10;78.95;94026.75;5065673;28;20025;-82
2023/12/09 07:50:34;;;;;;;14.55;7.20;;;;;;;1.18;78.67;94021.03;5065754;28;20044;-83
2023/12/09 07:53:00;;;;;;;16.38;6.68;;;;;;;1.24;77.87;94022.66;5064384;28;20216;-83
2023/12/09 07:55:26;;;;;;;11.63;5.20;;;;;;;1.30;76.87;94019.03;5063936;28;20025;-80
2023/12/09 07:57:51;;;;;;;10.75;5.25;;;;;;;1.43;76.24;94014.44;5065321;28;20465;-82
2023/12/09 08:00:17;;;;;;;12.57;5.82;;;;;;;1.54;74.73;94031.84;5065256;28;20028;-87
2023/12/09 08:02:42;;;;;;;8.55;4.78;;;;;;;1.56;73.94;94024.50;5065429;28;20258;-81
2023/12/09 08:05:08;;;;;;;10.63;5.75;;;;;;;1.59;74.10;94032.66;5065182;28;20040;-78
2023/12/09 08:07:33;;;;;;;18.05;5.85;;;;;;;1.62;74.22;94031.38;5064952;28;20025;-79
2023/12/09 08:09:59;;;;;;;14.27;6.00;;;;;;;1.73;73.90;94043.53;5064617;28;20020;-81
2023/12/09 08:12:24;;;;;;;14.05;6.43;;;;;;;1.74;73.75;94049.56;5065047;28;20041;-81
2023/12/09 08:14:50;;;;;;;12.15;5.97;;;;;;;1.76;72.42;94042.22;5064704;28;20246;-81
2023/12/09 08:17:16;;;;;;;9.60;4.88;;;;;;;1.79;72.43;94039.09;5064789;28;20020;-81
2023/12/09 08:19:41;;;;;;;17.60;9.35;;;;;;;1.85;73.23;94042.53;5064791;28;20216;-81
2023/12/09 08:22:07;;;;;;;17.75;8.85;;;;;;;1.79;71.93;94037.28;5063631;28;20021;-82
2023/12/09 08:24:32;;;;;;;13.20;6.80;;;;;;;1.76;72.56;94040.38;5064515;28;20025;-81
2023/12/09 08:26:58;;;;;;;11.35;6.88;;;;;;;1.73;73.30;94047.97;5064430;28;20028;-82
2023/12/09 08:29:23;;;;;;;12.60;6.20;;;;;;;1.72;72.38;94038.53;5064961;28;20088;-82
2023/12/09 08:31:49;;;;;;;14.80;6.30;;;;;;;1.72;72.75;94039.31;5063578;28;20222;-82
2023/12/09 08:34:18;;;;;;;15.27;6.60;;;;;;;1.76;73.01;94044.88;5064711;28;20040;-82
2023/12/09 08:36:44;;;;;;;16.08;7.13;;;;;;;1.89;72.87;94048.88;5064575;28;20043;-82
2023/12/09 08:39:09;;;;;;;25.08;6.78;;;;;;;1.87;72.15;94040.44;5063143;28;20323;-79
2023/12/09 08:41:35;;;;;;;13.55;7.30;;;;;;;1.90;72.88;94035.47;5064215;28;20207;-79
2023/12/09 08:44:03;;;;;;;10.35;6.25;;;;;;;1.95;72.25;94042.59;5096772;28;20211;-80
2023/12/09 08:46:29;;;;;;;11.77;5.97;;;;;;;2.00;71.97;94040.81;5064320;28;20028;-79
2023/12/09 08:48:54;;;;;;;13.32;6.45;;;;;;;2.07;71.28;94035.31;5064248;28;20028;-79
2023/12/09 08:51:19;;;;;;;10.20;5.95;;;;;;;2.08;71.11;94042.16;5063946;28;20086;-79
2023/12/09 08:53:45;;;;;;;9.30;4.72;;;;;;;2.07;70.15;94039.78;5064058;28;20255;-79
2023/12/09 08:56:10;;;;;;;11.40;5.90;;;;;;;2.08;70.58;94046.63;5063682;28;20025;-79
2023/12/09 08:58:36;;;;;;;10.00;6.03;;;;;;;2.18;71.72;94042.22;5063875;28;20060;-80
2023/12/09 09:01:01;;;;;;;13.35;5.85;;;;;;;2.17;71.83;94040.63;5062767;28;20067;-80
2023/12/09 09:03:28;;;;;;;13.23;7.05;;;;;;;2.11;71.97;94043.47;5063975;28;20334;-80
2023/12/09 09:05:53;;;;;;;15.52;7.00;;;;;;;2.10;71.65;94032.19;5062440;28;20021;-81
2023/12/09 09:08:19;;;;;;;12.52;6.88;;;;;;;2.05;72.21;94040.03;5063664;28;20088;-81
2023/12/09 09:10:45;;;;;;;16.38;6.68;;;;;;;2.08;72.10;94036.13;5063783;28;20322;-80
2023/12/09 09:13:10;;;;;;;11.38;6.38;;;;;;;2.13;72.19;94038.75;5063638;28;20311;-80
2023/12/09 09:15:36;;;;;;;8.02;5.15;;;;;;;2.12;71.70;94040.59;5063669;28;20084;-80
2023/12/09 09:18:02;;;;;;;14.10;6.93;;;;;;;2.12;71.28;94037.97;5063907;28;20134;-79
2023/12/09 09:20:27;;;;;;;13.15;6.78;;;;;;;2.05;72.20;94032.13;5063858;28;20297;-79
2023/12/09 09:22:53;;;;;;;10.65;5.55;;;;;;;2.04;71.95;94027.94;5063486;28;20063;-80
2023/12/09 09:25:19;;;;;;;7.38;4.25;;;;;;;2.08;71.47;94015.09;5063553;28;20248;-80
2023/12/09 09:27:47;;;;;;;11.07;5.38;;;;;;;2.16;69.73;94020.63;5063538;28;20021;-80
2023/12/09 09:30:19;;;;;;;7.28;4.43;;;;;;;2.14;69.37;94016.69;5063358;28;20032;-80
2023/12/09 09:32:51;;;;;;;10.55;5.85;;;;;;;2.12;69.94;94016.94;5063342;28;20021;-80
2023/12/09 09:35:33;;;;;;;9.77;4.90;;;;;;;2.10;70.91;94005.09;5062835;28;20056;-80
2023/12/09 09:38:28;;;;;;;10.57;6.07;;;;;;;2.10;71.55;94003.25;5063396;28;20189;-81
2023/12/09 09:41:07;;;;;;;9.82;5.72;;;;;;;2.16;71.01;94002.22;5076530;28;20044;-82
2023/12/09 09:47:30;;;;;;;9.10;5.20;;;;;;;2.32;70.30;93999.66;5063924;28;20230;-83
2023/12/09 09:50:21;;;;;;;10.13;5.22;;;;;;;2.36;70.01;93995.44;5062773;28;20040;-81
2023/12/09 09:52:47;;;;;;;7.82;4.13;;;;;;;2.40;69.74;93999.97;5063309;28;20100;-83
2023/12/09 09:55:15;;;;;;;9.20;4.38;;;;;;;2.29;68.93;94002.81;5063001;28;20037;-85
2023/12/09 09:57:42;;;;;;;8.10;4.53;;;;;;;2.24;69.34;93994.88;5063243;28;20044;-81
2023/12/09 10:00:12;;;;;;;8.45;4.28;;;;;;;2.29;70.59;94000.19;5063219;28;20040;-82
2023/12/09 10:02:42;;;;;;;10.25;5.53;;;;;;;2.25;70.94;94002.53;5062075;28;20041;-82
2023/12/09 10:05:08;;;;;;;11.82;6.28;;;;;;;2.30;70.00;93999.13;5063225;28;20048;-81
2023/12/09 10:07:35;;;;;;;10.52;6.43;;;;;;;2.29;70.01;93997.53;5063033;28;20028;-81
2023/12/09 10:10:02;;;;;;;10.57;5.45;;;;;;;2.35;70.63;94004.41;5063384;28;20028;-82
2023/12/09 10:12:29;;;;;;;8.20;4.93;;;;;;;2.39;70.12;94010.72;5063191;28;20075;-83
2023/12/09 10:14:56;;;;;;;8.70;4.72;;;;;;;2.38;69.29;94003.88;5063151;28;20196;-82
2023/12/09 10:17:22;;;;;;;8.93;5.22;;;;;;;2.44;70.51;94005.47;5063049;28;20056;-82
2023/12/09 10:19:48;;;;;;;13.55;4.35;;;;;;;2.30;69.77;93994.66;5062905;28;20021;-82
2023/12/09 10:22:13;;;;;;;8.10;4.43;;;;;;;2.21;70.17;93996.97;5061782;28;20021;-82
2023/12/09 10:24:39;;;;;;;13.70;4.50;;;;;;;2.27;69.52;93997.00;5062786;28;20021;-82
2023/12/09 10:27:05;;;;;;;8.93;4.40;;;;;;;2.42;68.94;93994.41;5062964;28;20055;-82
2023/12/09 10:29:30;;;;;;;9.85;4.28;;;;;;;2.57;68.43;94004.22;5061419;28;20329;-82
2023/12/09 10:31:59;;;;;;;10.23;4.70;;;;;;;2.49;68.07;93994.97;5062629;28;20025;-82
2023/12/09 10:34:25;;;;;;;9.98;5.45;;;;;;;2.45;67.82;93993.91;5062626;28;20025;-82
2023/12/09 10:36:51;;;;;;;8.15;5.03;;;;;;;2.37;67.85;93989.94;5062461;28;20094;-81
2023/12/09 10:39:19;;;;;;;10.75;4.90;;;;;;;2.46;68.21;93994.69;5062448;28;20036;-80
2023/12/09 10:41:45;;;;;;;8.80;4.45;;;;;;;2.45;67.43;93993.13;5062634;28;20326;-80
2023/12/09 10:44:11;;;;;;;7.53;4.88;;;;;;;2.34;68.82;93981.75;5062008;28;20377;-80
2023/12/09 10:46:36;;;;;;;7.80;4.03;;;;;;;2.37;68.24;93983.91;5065086;28;20025;-78
2023/12/09 10:49:02;;;;;;;9.25;4.63;;;;;;;2.32;67.12;93979.41;5066135;28;20029;-76
2023/12/09 10:51:27;;;;;;;7.93;4.45;;;;;;;2.47;67.80;93978.66;5065981;28;20044;-80
2023/12/09 10:53:53;;;;;;;7.38;4.55;;;;;;;2.64;67.95;93967.91;5066120;28;20025;-80
2023/12/09 10:56:19;;;;;;;8.65;4.82;;;;;;;2.76;68.30;93972.94;5066050;28;20094;-80
2023/12/09 10:58:45;;;;;;;8.55;4.25;;;;;;;2.91;68.62;93972.16;5065628;28;20052;-81
2023/12/09 11:01:12;;;;;;;7.97;3.75;;;;;;;2.98;68.11;93970.06;5064687;28;20055;-81
2023/12/09 11:03:38;;;;;;;8.13;4.25;;;;;;;3.09;68.05;93969.00;5066003;28;20028;-80
2023/12/09 11:06:06;;;;;;;7.28;3.90;;;;;;;3.22;68.20;93965.84;5064701;28;20029;-81
2023/12/09 11:08:34;;;;;;;12.00;5.05;;;;;;;3.36;67.86;93976.66;5066198;28;20021;-80
2023/12/09 11:11:03;;;;;;;11.20;4.75;;;;;;;3.42;64.83;93964.28;5064835;28;20025;-80
2023/12/09 11:13:32;;;;;;;7.93;4.22;;;;;;;3.40;65.85;93961.91;5065813;28;20017;-81
2023/12/09 11:16:12;;;;;;;8.52;4.05;;;;;;;3.38;64.92;93964.00;5065752;28;20024;-81
2023/12/09 11:18:52;;;;;;;10.30;4.68;;;;;;;3.41;66.02;93965.31;5065732;28;20051;-81
2023/12/09 11:21:23;;;;;;;9.80;5.07;;;;;;;3.49;65.97;93964.00;5065508;28;20021;-81
2023/12/09 11:23:50;;;;;;;7.10;4.18;;;;;;;3.58;66.05;93957.94;5065391;28;20025;-80
2023/12/09 11:26:29;;;;;;;9.02;4.63;;;;;;;3.64;65.37;93953.41;5065539;28;20059;-79
2023/12/09 11:29:06;;;;;;;7.72;4.30;;;;;;;3.66;64.71;93953.16;5065177;28;20103;-93
2023/12/09 11:31:37;;;;;;;16.95;5.22;;;;;;;3.57;65.20;93956.34;5066913;28;20028;-95